sensor_id;sensor_type;location;lat;lon;timestamp;P1;durP1;ratioP1;P2;durP2;ratioP2
20170;SDS011;10245;51.344;6.620;2023-05-25T00:00:45;12.32;;;5.68;;
20170;SDS011;10245;51.344;6.620;2023-05-25T00:03:22;15.85;;;5.97;;
20170;SDS011;10245;51.344;6.620;2023-05-25T00:05:49;18.67;;;6.70;;
20170;SDS011;10245;51.344;6.620;2023-05-25T00:08:14;13.25;;;6.60;;
20170;SDS011;10245;51.344;6.620;2023-05-25T00:10:37;16.10;;;6.28;;
20170;SDS011;10245;51.344;6.620;2023-05-25T00:13:00;14.32;;;6.57;;
20170;SDS011;10245;51.344;6.620;2023-05-25T00:15:24;15.30;;;6.47;;
20170;SDS011;10245;51.344;6.620;2023-05-25T00:17:47;14.35;;;7.78;;
20170;SDS011;10245;51.344;6.620;2023-05-25T00:20:11;14.18;;;6.43;;
20170;SDS011;10245;51.344;6.620;2023-05-25T00:22:36;14.55;;;6.63;;
20170;SDS011;10245;51.344;6.620;2023-05-25T00:25:00;14.35;;;6.88;;
20170;SDS011;10245;51.344;6.620;2023-05-25T00:27:24;12.93;;;6.45;;
20170;SDS011;10245;51.344;6.620;2023-05-25T00:29:47;17.08;;;6.57;;
20170;SDS011;10245;51.344;6.620;2023-05-25T00:32:10;13.40;;;6.90;;
20170;SDS011;10245;51.344;6.620;2023-05-25T00:34:34;14.45;;;6.97;;
20170;SDS011;10245;51.344;6.620;2023-05-25T00:36:57;14.05;;;6.78;;
20170;SDS011;10245;51.344;6.620;2023-05-25T00:39:22;13.57;;;6.78;;
20170;SDS011;10245;51.344;6.620;2023-05-25T00:41:46;14.98;;;7.85;;
20170;SDS011;10245;51.344;6.620;2023-05-25T00:44:10;18.88;;;7.45;;
20170;SDS011;10245;51.344;6.620;2023-05-25T00:46:35;14.50;;;6.47;;
20170;SDS011;10245;51.344;6.620;2023-05-25T00:48:59;14.50;;;6.97;;
20170;SDS011;10245;51.344;6.620;2023-05-25T00:51:23;16.13;;;6.72;;
20170;SDS011;10245;51.344;6.620;2023-05-25T00:53:48;14.52;;;6.97;;
20170;SDS011;10245;51.344;6.620;2023-05-25T00:56:16;15.63;;;6.35;;
20170;SDS011;10245;51.344;6.620;2023-05-25T00:58:41;15.90;;;7.18;;
20170;SDS011;10245;51.344;6.620;2023-05-25T01:01:07;14.13;;;6.72;;
20170;SDS011;10245;51.344;6.620;2023-05-25T01:03:33;15.10;;;7.50;;
20170;SDS011;10245;51.344;6.620;2023-05-25T01:05:59;17.73;;;7.43;;
20170;SDS011;10245;51.344;6.620;2023-05-25T01:08:24;16.05;;;7.05;;
20170;SDS011;10245;51.344;6.620;2023-05-25T01:10:50;17.80;;;7.03;;
20170;SDS011;10245;51.344;6.620;2023-05-25T01:13:16;15.10;;;7.00;;
20170;SDS011;10245;51.344;6.620;2023-05-25T01:15:41;14.30;;;6.90;;
20170;SDS011;10245;51.344;6.620;2023-05-25T01:18:06;15.32;;;7.35;;
20170;SDS011;10245;51.344;6.620;2023-05-25T01:20:29;15.15;;;7.53;;
20170;SDS011;10245;51.344;6.620;2023-05-25T01:22:56;16.63;;;7.50;;
20170;SDS011;10245;51.344;6.620;2023-05-25T01:25:24;15.52;;;7.65;;
20170;SDS011;10245;51.344;6.620;2023-05-25T01:27:56;18.25;;;7.93;;
20170;SDS011;10245;51.344;6.620;2023-05-25T01:30:25;12.95;;;7.57;;
20170;SDS011;10245;51.344;6.620;2023-05-25T01:32:49;11.82;;;6.68;;
20170;SDS011;10245;51.344;6.620;2023-05-25T01:35:15;20.05;;;8.57;;
20170;SDS011;10245;51.344;6.620;2023-05-25T01:37:43;16.83;;;7.63;;
20170;SDS011;10245;51.344;6.620;2023-05-25T01:40:10;15.82;;;7.95;;
20170;SDS011;10245;51.344;6.620;2023-05-25T01:42:34;12.27;;;6.90;;
20170;SDS011;10245;51.344;6.620;2023-05-25T01:44:58;19.60;;;9.20;;
20170;SDS011;10245;51.344;6.620;2023-05-25T01:47:24;17.13;;;7.88;;
20170;SDS011;10245;51.344;6.620;2023-05-25T01:49:55;19.63;;;8.45;;
20170;SDS011;10245;51.344;6.620;2023-05-25T01:52:25;15.43;;;8.02;;
20170;SDS011;10245;51.344;6.620;2023-05-25T01:54:53;21.60;;;8.70;;
20170;SDS011;10245;51.344;6.620;2023-05-25T01:57:25;18.15;;;8.07;;
20170;SDS011;10245;51.344;6.620;2023-05-25T01:59:50;22.08;;;9.05;;
20170;SDS011;10245;51.344;6.620;2023-05-25T02:02:16;21.58;;;9.00;;
20170;SDS011;10245;51.344;6.620;2023-05-25T02:04:40;18.42;;;7.95;;
20170;SDS011;10245;51.344;6.620;2023-05-25T02:07:04;14.88;;;7.60;;
20170;SDS011;10245;51.344;6.620;2023-05-25T02:09:28;15.40;;;7.78;;
20170;SDS011;10245;51.344;6.620;2023-05-25T02:11:51;19.65;;;8.27;;
20170;SDS011;10245;51.344;6.620;2023-05-25T02:14:17;15.60;;;7.38;;
20170;SDS011;10245;51.344;6.620;2023-05-25T02:16:40;15.23;;;7.30;;
20170;SDS011;10245;51.344;6.620;2023-05-25T02:19:06;17.25;;;8.10;;
20170;SDS011;10245;51.344;6.620;2023-05-25T02:21:32;15.60;;;8.00;;
20170;SDS011;10245;51.344;6.620;2023-05-25T02:23:57;19.85;;;8.32;;
20170;SDS011;10245;51.344;6.620;2023-05-25T02:26:22;16.27;;;8.57;;
20170;SDS011;10245;51.344;6.620;2023-05-25T02:28:45;14.15;;;7.47;;
20170;SDS011;10245;51.344;6.620;2023-05-25T02:31:12;17.65;;;8.57;;
20170;SDS011;10245;51.344;6.620;2023-05-25T02:33:36;15.48;;;8.63;;
20170;SDS011;10245;51.344;6.620;2023-05-25T02:35:59;13.73;;;7.68;;
20170;SDS011;10245;51.344;6.620;2023-05-25T02:38:23;16.33;;;8.10;;
20170;SDS011;10245;51.344;6.620;2023-05-25T02:40:47;17.10;;;7.22;;
20170;SDS011;10245;51.344;6.620;2023-05-25T02:43:13;16.23;;;7.43;;
20170;SDS011;10245;51.344;6.620;2023-05-25T02:45:36;16.50;;;8.57;;
20170;SDS011;10245;51.344;6.620;2023-05-25T02:48:02;15.88;;;8.18;;
20170;SDS011;10245;51.344;6.620;2023-05-25T02:50:27;19.73;;;8.70;;
20170;SDS011;10245;51.344;6.620;2023-05-25T02:52:55;18.95;;;8.85;;
20170;SDS011;10245;51.344;6.620;2023-05-25T02:55:18;21.08;;;9.50;;
20170;SDS011;10245;51.344;6.620;2023-05-25T02:57:41;13.93;;;8.23;;
20170;SDS011;10245;51.344;6.620;2023-05-25T03:00:11;18.85;;;9.13;;
20170;SDS011;10245;51.344;6.620;2023-05-25T03:02:35;19.10;;;8.50;;
20170;SDS011;10245;51.344;6.620;2023-05-25T03:05:00;17.73;;;8.23;;
20170;SDS011;10245;51.344;6.620;2023-05-25T03:07:25;16.75;;;7.90;;
20170;SDS011;10245;51.344;6.620;2023-05-25T03:09:49;17.95;;;8.40;;
20170;SDS011;10245;51.344;6.620;2023-05-25T03:12:12;14.82;;;8.32;;
20170;SDS011;10245;51.344;6.620;2023-05-25T03:14:36;20.17;;;8.85;;
20170;SDS011;10245;51.344;6.620;2023-05-25T03:17:00;17.90;;;9.05;;
20170;SDS011;10245;51.344;6.620;2023-05-25T03:19:24;17.35;;;8.85;;
20170;SDS011;10245;51.344;6.620;2023-05-25T03:21:48;30.17;;;9.93;;
20170;SDS011;10245;51.344;6.620;2023-05-25T03:24:12;20.45;;;10.18;;
20170;SDS011;10245;51.344;6.620;2023-05-25T03:26:37;19.77;;;9.90;;
20170;SDS011;10245;51.344;6.620;2023-05-25T03:29:01;22.65;;;10.70;;
20170;SDS011;10245;51.344;6.620;2023-05-25T03:31:27;25.00;;;9.93;;
20170;SDS011;10245;51.344;6.620;2023-05-25T03:33:51;19.50;;;10.13;;
20170;SDS011;10245;51.344;6.620;2023-05-25T03:36:16;20.00;;;10.30;;
20170;SDS011;10245;51.344;6.620;2023-05-25T03:38:41;19.52;;;10.07;;
20170;SDS011;10245;51.344;6.620;2023-05-25T03:41:05;19.67;;;9.45;;
20170;SDS011;10245;51.344;6.620;2023-05-25T03:43:29;21.58;;;10.70;;
20170;SDS011;10245;51.344;6.620;2023-05-25T03:45:52;22.25;;;10.18;;
20170;SDS011;10245;51.344;6.620;2023-05-25T03:48:15;22.58;;;11.02;;
20170;SDS011;10245;51.344;6.620;2023-05-25T03:50:40;21.25;;;10.98;;
20170;SDS011;10245;51.344;6.620;2023-05-25T03:53:03;26.35;;;11.18;;
20170;SDS011;10245;51.344;6.620;2023-05-25T03:55:28;26.60;;;10.77;;
20170;SDS011;10245;51.344;6.620;2023-05-25T03:57:52;20.35;;;10.15;;
20170;SDS011;10245;51.344;6.620;2023-05-25T04:00:16;23.08;;;10.68;;
20170;SDS011;10245;51.344;6.620;2023-05-25T04:02:42;21.50;;;10.77;;
20170;SDS011;10245;51.344;6.620;2023-05-25T04:05:07;19.33;;;9.98;;
20170;SDS011;10245;51.344;6.620;2023-05-25T04:07:31;17.70;;;9.82;;
20170;SDS011;10245;51.344;6.620;2023-05-25T04:09:54;19.88;;;10.57;;
20170;SDS011;10245;51.344;6.620;2023-05-25T04:12:21;15.43;;;9.43;;
20170;SDS011;10245;51.344;6.620;2023-05-25T04:14:44;22.10;;;9.38;;
20170;SDS011;10245;51.344;6.620;2023-05-25T04:17:08;19.88;;;10.30;;
20170;SDS011;10245;51.344;6.620;2023-05-25T04:19:31;20.55;;;9.90;;
20170;SDS011;10245;51.344;6.620;2023-05-25T04:21:55;15.63;;;9.00;;
20170;SDS011;10245;51.344;6.620;2023-05-25T04:24:18;20.90;;;9.25;;
20170;SDS011;10245;51.344;6.620;2023-05-25T04:26:43;17.00;;;9.48;;
20170;SDS011;10245;51.344;6.620;2023-05-25T04:29:09;19.30;;;8.55;;
20170;SDS011;10245;51.344;6.620;2023-05-25T04:32:05;18.98;;;9.85;;
20170;SDS011;10245;51.344;6.620;2023-05-25T04:34:41;16.48;;;8.90;;
20170;SDS011;10245;51.344;6.620;2023-05-25T04:37:11;21.35;;;9.60;;
20170;SDS011;10245;51.344;6.620;2023-05-25T04:39:34;15.32;;;8.50;;
20170;SDS011;10245;51.344;6.620;2023-05-25T04:41:58;16.98;;;9.63;;
20170;SDS011;10245;51.344;6.620;2023-05-25T04:44:28;19.65;;;10.48;;
20170;SDS011;10245;51.344;6.620;2023-05-25T04:46:52;20.85;;;10.60;;
20170;SDS011;10245;51.344;6.620;2023-05-25T04:49:27;26.98;;;12.00;;
20170;SDS011;10245;51.344;6.620;2023-05-25T04:51:50;20.50;;;11.23;;
20170;SDS011;10245;51.344;6.620;2023-05-25T04:54:14;21.55;;;11.15;;
20170;SDS011;10245;51.344;6.620;2023-05-25T04:56:37;24.73;;;10.70;;
20170;SDS011;10245;51.344;6.620;2023-05-25T04:59:01;18.52;;;10.40;;
20170;SDS011;10245;51.344;6.620;2023-05-25T05:01:26;19.92;;;9.52;;
20170;SDS011;10245;51.344;6.620;2023-05-25T05:03:54;18.45;;;9.75;;
20170;SDS011;10245;51.344;6.620;2023-05-25T05:06:18;21.95;;;10.50;;
20170;SDS011;10245;51.344;6.620;2023-05-25T05:08:42;24.52;;;10.13;;
20170;SDS011;10245;51.344;6.620;2023-05-25T05:11:05;21.55;;;10.00;;
20170;SDS011;10245;51.344;6.620;2023-05-25T05:13:29;20.25;;;9.75;;
20170;SDS011;10245;51.344;6.620;2023-05-25T05:15:52;23.10;;;9.70;;
20170;SDS011;10245;51.344;6.620;2023-05-25T05:18:17;19.88;;;9.73;;
20170;SDS011;10245;51.344;6.620;2023-05-25T05:20:41;19.73;;;10.35;;
20170;SDS011;10245;51.344;6.620;2023-05-25T05:23:05;23.95;;;11.25;;
20170;SDS011;10245;51.344;6.620;2023-05-25T05:25:28;20.80;;;9.75;;
20170;SDS011;10245;51.344;6.620;2023-05-25T05:27:52;18.63;;;9.80;;
20170;SDS011;10245;51.344;6.620;2023-05-25T05:30:20;20.50;;;10.38;;
20170;SDS011;10245;51.344;6.620;2023-05-25T05:32:43;21.00;;;9.82;;
20170;SDS011;10245;51.344;6.620;2023-05-25T05:35:09;18.75;;;9.60;;
20170;SDS011;10245;51.344;6.620;2023-05-25T05:37:39;19.42;;;9.48;;
20170;SDS011;10245;51.344;6.620;2023-05-25T05:40:05;17.80;;;8.88;;
20170;SDS011;10245;51.344;6.620;2023-05-25T05:42:32;18.90;;;10.02;;
20170;SDS011;10245;51.344;6.620;2023-05-25T05:44:56;16.25;;;9.52;;
20170;SDS011;10245;51.344;6.620;2023-05-25T05:47:19;22.25;;;9.82;;
20170;SDS011;10245;51.344;6.620;2023-05-25T05:49:43;19.08;;;10.82;;
20170;SDS011;10245;51.344;6.620;2023-05-25T05:52:09;24.48;;;11.02;;
20170;SDS011;10245;51.344;6.620;2023-05-25T05:54:32;18.30;;;9.90;;
20170;SDS011;10245;51.344;6.620;2023-05-25T05:57:01;21.55;;;10.45;;
20170;SDS011;10245;51.344;6.620;2023-05-25T05:59:24;18.63;;;10.13;;
20170;SDS011;10245;51.344;6.620;2023-05-25T06:01:48;19.95;;;10.00;;
20170;SDS011;10245;51.344;6.620;2023-05-25T06:04:12;20.15;;;10.05;;
20170;SDS011;10245;51.344;6.620;2023-05-25T06:06:36;16.80;;;9.57;;
20170;SDS011;10245;51.344;6.620;2023-05-25T06:09:02;22.17;;;10.40;;
20170;SDS011;10245;51.344;6.620;2023-05-25T06:11:27;23.30;;;10.45;;
20170;SDS011;10245;51.344;6.620;2023-05-25T06:13:51;23.50;;;10.45;;
20170;SDS011;10245;51.344;6.620;2023-05-25T06:16:15;21.27;;;10.93;;
20170;SDS011;10245;51.344;6.620;2023-05-25T06:18:38;20.55;;;10.55;;
20170;SDS011;10245;51.344;6.620;2023-05-25T06:21:07;22.95;;;11.30;;
20170;SDS011;10245;51.344;6.620;2023-05-25T06:23:32;21.35;;;10.35;;
20170;SDS011;10245;51.344;6.620;2023-05-25T06:26:01;21.17;;;10.35;;
20170;SDS011;10245;51.344;6.620;2023-05-25T06:28:26;18.88;;;9.35;;
20170;SDS011;10245;51.344;6.620;2023-05-25T06:30:49;16.55;;;10.13;;
20170;SDS011;10245;51.344;6.620;2023-05-25T06:33:13;24.50;;;10.23;;
20170;SDS011;10245;51.344;6.620;2023-05-25T06:35:37;18.05;;;9.50;;
20170;SDS011;10245;51.344;6.620;2023-05-25T06:38:00;20.80;;;9.63;;
20170;SDS011;10245;51.344;6.620;2023-05-25T06:40:24;25.48;;;9.18;;
20170;SDS011;10245;51.344;6.620;2023-05-25T06:42:50;28.98;;;9.65;;
20170;SDS011;10245;51.344;6.620;2023-05-25T06:45:31;16.90;;;9.20;;
20170;SDS011;10245;51.344;6.620;2023-05-25T06:47:54;21.98;;;10.15;;
20170;SDS011;10245;51.344;6.620;2023-05-25T06:50:19;15.45;;;8.85;;
20170;SDS011;10245;51.344;6.620;2023-05-25T06:52:42;16.40;;;8.52;;
20170;SDS011;10245;51.344;6.620;2023-05-25T06:55:07;22.40;;;9.40;;
20170;SDS011;10245;51.344;6.620;2023-05-25T06:58:24;19.23;;;8.23;;
20170;SDS011;10245;51.344;6.620;2023-05-25T07:01:12;20.05;;;9.73;;
20170;SDS011;10245;51.344;6.620;2023-05-25T07:03:37;22.55;;;10.32;;
20170;SDS011;10245;51.344;6.620;2023-05-25T07:06:01;20.75;;;9.57;;
20170;SDS011;10245;51.344;6.620;2023-05-25T07:09:12;17.23;;;9.18;;
20170;SDS011;10245;51.344;6.620;2023-05-25T07:11:41;22.98;;;9.95;;
20170;SDS011;10245;51.344;6.620;2023-05-25T07:14:34;19.88;;;9.25;;
20170;SDS011;10245;51.344;6.620;2023-05-25T07:17:20;19.13;;;8.73;;
20170;SDS011;10245;51.344;6.620;2023-05-25T07:20:36;18.33;;;8.45;;
20170;SDS011;10245;51.344;6.620;2023-05-25T07:23:04;19.58;;;9.07;;
20170;SDS011;10245;51.344;6.620;2023-05-25T07:25:30;17.98;;;8.65;;
20170;SDS011;10245;51.344;6.620;2023-05-25T07:27:54;20.42;;;8.35;;
20170;SDS011;10245;51.344;6.620;2023-05-25T07:30:20;21.77;;;9.82;;
20170;SDS011;10245;51.344;6.620;2023-05-25T07:33:30;13.43;;;8.07;;
20170;SDS011;10245;51.344;6.620;2023-05-25T07:36:48;21.30;;;8.73;;
20170;SDS011;10245;51.344;6.620;2023-05-25T07:39:22;18.17;;;9.50;;
20170;SDS011;10245;51.344;6.620;2023-05-25T07:42:38;18.08;;;8.73;;
20170;SDS011;10245;51.344;6.620;2023-05-25T07:45:55;18.45;;;8.65;;
20170;SDS011;10245;51.344;6.620;2023-05-25T07:49:11;14.18;;;8.73;;
20170;SDS011;10245;51.344;6.620;2023-05-25T07:52:28;27.70;;;9.68;;
20170;SDS011;10245;51.344;6.620;2023-05-25T07:55:44;20.02;;;9.65;;
20170;SDS011;10245;51.344;6.620;2023-05-25T07:59:00;18.02;;;11.05;;
20170;SDS011;10245;51.344;6.620;2023-05-25T08:02:17;19.17;;;10.93;;
20170;SDS011;10245;51.344;6.620;2023-05-25T08:05:34;16.52;;;10.15;;
20170;SDS011;10245;51.344;6.620;2023-05-25T08:08:05;18.20;;;10.35;;
20170;SDS011;10245;51.344;6.620;2023-05-25T08:11:05;22.60;;;12.90;;
20170;SDS011;10245;51.344;6.620;2023-05-25T08:14:42;18.67;;;11.10;;
20170;SDS011;10245;51.344;6.620;2023-05-25T08:17:07;17.83;;;11.20;;
20170;SDS011;10245;51.344;6.620;2023-05-25T08:20:25;27.10;;;18.02;;
20170;SDS011;10245;51.344;6.620;2023-05-25T08:22:48;25.48;;;18.80;;
20170;SDS011;10245;51.344;6.620;2023-05-25T08:25:14;24.95;;;17.15;;
20170;SDS011;10245;51.344;6.620;2023-05-25T08:28:21;26.17;;;20.63;;
20170;SDS011;10245;51.344;6.620;2023-05-25T08:31:37;29.00;;;20.75;;
20170;SDS011;10245;51.344;6.620;2023-05-25T08:34:12;21.35;;;13.77;;
20170;SDS011;10245;51.344;6.620;2023-05-25T08:37:28;20.85;;;14.68;;
20170;SDS011;10245;51.344;6.620;2023-05-25T08:40:46;23.17;;;15.02;;
20170;SDS011;10245;51.344;6.620;2023-05-25T08:43:40;30.40;;;16.05;;
20170;SDS011;10245;51.344;6.620;2023-05-25T08:46:27;21.17;;;14.73;;
20170;SDS011;10245;51.344;6.620;2023-05-25T08:49:47;23.20;;;15.18;;
20170;SDS011;10245;51.344;6.620;2023-05-25T08:53:04;22.45;;;12.23;;
20170;SDS011;10245;51.344;6.620;2023-05-25T08:56:25;22.63;;;15.25;;
20170;SDS011;10245;51.344;6.620;2023-05-25T08:59:46;20.55;;;15.85;;
20170;SDS011;10245;51.344;6.620;2023-05-25T09:03:09;22.92;;;14.45;;
20170;SDS011;10245;51.344;6.620;2023-05-25T09:06:31;20.17;;;13.27;;
20170;SDS011;10245;51.344;6.620;2023-05-25T09:09:45;15.15;;;12.48;;
20170;SDS011;10245;51.344;6.620;2023-05-25T09:12:14;18.00;;;12.95;;
20170;SDS011;10245;51.344;6.620;2023-05-25T09:14:46;19.25;;;12.25;;
20170;SDS011;10245;51.344;6.620;2023-05-25T09:17:10;21.00;;;13.25;;
20170;SDS011;10245;51.344;6.620;2023-05-25T09:19:36;21.40;;;13.52;;
20170;SDS011;10245;51.344;6.620;2023-05-25T09:22:54;18.73;;;11.68;;
20170;SDS011;10245;51.344;6.620;2023-05-25T09:26:08;17.42;;;10.73;;
20170;SDS011;10245;51.344;6.620;2023-05-25T09:29:24;15.43;;;10.30;;
20170;SDS011;10245;51.344;6.620;2023-05-25T09:32:40;12.35;;;8.93;;
20170;SDS011;10245;51.344;6.620;2023-05-25T09:35:57;13.05;;;8.10;;
20170;SDS011;10245;51.344;6.620;2023-05-25T09:39:15;13.82;;;8.25;;
20170;SDS011;10245;51.344;6.620;2023-05-25T09:42:32;17.50;;;8.93;;
20170;SDS011;10245;51.344;6.620;2023-05-25T09:46:03;15.82;;;8.30;;
20170;SDS011;10245;51.344;6.620;2023-05-25T09:48:28;16.80;;;8.13;;
20170;SDS011;10245;51.344;6.620;2023-05-25T09:51:05;14.18;;;7.65;;
20170;SDS011;10245;51.344;6.620;2023-05-25T09:54:23;15.90;;;9.65;;
20170;SDS011;10245;51.344;6.620;2023-05-25T09:56:50;14.30;;;9.45;;
20170;SDS011;10245;51.344;6.620;2023-05-25T09:59:15;16.33;;;9.35;;
20170;SDS011;10245;51.344;6.620;2023-05-25T10:01:40;16.38;;;8.10;;
20170;SDS011;10245;51.344;6.620;2023-05-25T10:04:56;14.68;;;8.68;;
20170;SDS011;10245;51.344;6.620;2023-05-25T10:07:19;10.27;;;7.03;;
20170;SDS011;10245;51.344;6.620;2023-05-25T10:10:37;10.85;;;8.43;;
20170;SDS011;10245;51.344;6.620;2023-05-25T10:13:34;15.15;;;9.23;;
20170;SDS011;10245;51.344;6.620;2023-05-25T10:15:58;16.27;;;11.43;;
20170;SDS011;10245;51.344;6.620;2023-05-25T10:18:46;11.57;;;9.77;;
20170;SDS011;10245;51.344;6.620;2023-05-25T10:22:02;14.18;;;8.63;;
20170;SDS011;10245;51.344;6.620;2023-05-25T10:25:25;14.50;;;10.07;;
20170;SDS011;10245;51.344;6.620;2023-05-25T10:28:46;16.92;;;10.60;;
20170;SDS011;10245;51.344;6.620;2023-05-25T10:32:05;14.00;;;9.32;;
20170;SDS011;10245;51.344;6.620;2023-05-25T10:35:23;13.52;;;7.45;;
20170;SDS011;10245;51.344;6.620;2023-05-25T10:38:39;15.57;;;10.73;;
20170;SDS011;10245;51.344;6.620;2023-05-25T10:41:26;13.68;;;8.82;;
20170;SDS011;10245;51.344;6.620;2023-05-25T10:44:42;16.95;;;9.50;;
20170;SDS011;10245;51.344;6.620;2023-05-25T10:47:32;13.93;;;8.93;;
20170;SDS011;10245;51.344;6.620;2023-05-25T10:50:57;15.00;;;8.20;;
20170;SDS011;10245;51.344;6.620;2023-05-25T10:54:19;13.88;;;9.65;;
20170;SDS011;10245;51.344;6.620;2023-05-25T10:57:35;14.60;;;8.43;;
20170;SDS011;10245;51.344;6.620;2023-05-25T11:00:58;14.77;;;8.13;;
20170;SDS011;10245;51.344;6.620;2023-05-25T11:04:14;15.77;;;9.25;;
20170;SDS011;10245;51.344;6.620;2023-05-25T11:07:52;14.80;;;9.75;;
20170;SDS011;10245;51.344;6.620;2023-05-25T11:10:49;16.10;;;8.98;;
20170;SDS011;10245;51.344;6.620;2023-05-25T11:14:27;14.00;;;8.25;;
20170;SDS011;10245;51.344;6.620;2023-05-25T11:17:45;13.30;;;9.40;;
20170;SDS011;10245;51.344;6.620;2023-05-25T11:20:26;11.68;;;8.13;;
20170;SDS011;10245;51.344;6.620;2023-05-25T11:22:58;9.15;;;5.53;;
20170;SDS011;10245;51.344;6.620;2023-05-25T11:25:49;6.47;;;4.50;;
20170;SDS011;10245;51.344;6.620;2023-05-25T11:28:14;7.70;;;3.92;;
20170;SDS011;10245;51.344;6.620;2023-05-25T11:30:40;9.35;;;4.95;;
20170;SDS011;10245;51.344;6.620;2023-05-25T11:33:37;11.43;;;6.70;;
20170;SDS011;10245;51.344;6.620;2023-05-25T11:36:08;14.27;;;7.25;;
20170;SDS011;10245;51.344;6.620;2023-05-25T11:39:24;11.82;;;5.65;;
20170;SDS011;10245;51.344;6.620;2023-05-25T11:42:44;11.38;;;5.97;;
20170;SDS011;10245;51.344;6.620;2023-05-25T11:46:07;8.75;;;5.20;;
20170;SDS011;10245;51.344;6.620;2023-05-25T11:49:26;12.52;;;6.15;;
20170;SDS011;10245;51.344;6.620;2023-05-25T11:52:42;10.93;;;6.10;;
20170;SDS011;10245;51.344;6.620;2023-05-25T11:55:31;13.30;;;5.70;;
20170;SDS011;10245;51.344;6.620;2023-05-25T11:58:56;11.82;;;6.40;;
20170;SDS011;10245;51.344;6.620;2023-05-25T12:02:13;10.48;;;5.60;;
20170;SDS011;10245;51.344;6.620;2023-05-25T12:05:37;10.63;;;5.78;;
20170;SDS011;10245;51.344;6.620;2023-05-25T12:08:54;9.93;;;4.95;;
20170;SDS011;10245;51.344;6.620;2023-05-25T12:12:11;11.05;;;6.00;;
20170;SDS011;10245;51.344;6.620;2023-05-25T12:15:30;10.50;;;4.88;;
20170;SDS011;10245;51.344;6.620;2023-05-25T12:18:47;11.18;;;5.43;;
20170;SDS011;10245;51.344;6.620;2023-05-25T12:22:04;10.40;;;5.03;;
20170;SDS011;10245;51.344;6.620;2023-05-25T12:25:20;9.27;;;5.60;;
20170;SDS011;10245;51.344;6.620;2023-05-25T12:27:45;11.90;;;5.22;;
20170;SDS011;10245;51.344;6.620;2023-05-25T12:34:36;12.27;;;6.07;;
20170;SDS011;10245;51.344;6.620;2023-05-25T12:41:23;13.35;;;6.60;;
20170;SDS011;10245;51.344;6.620;2023-05-25T12:44:35;12.77;;;5.90;;
20170;SDS011;10245;51.344;6.620;2023-05-25T12:47:51;15.55;;;7.28;;
20170;SDS011;10245;51.344;6.620;2023-05-25T12:51:09;10.18;;;6.20;;
20170;SDS011;10245;51.344;6.620;2023-05-25T12:54:35;9.48;;;5.20;;
20170;SDS011;10245;51.344;6.620;2023-05-25T12:57:54;11.00;;;6.10;;
20170;SDS011;10245;51.344;6.620;2023-05-25T13:01:11;9.48;;;5.28;;
20170;SDS011;10245;51.344;6.620;2023-05-25T13:04:28;12.73;;;5.65;;
20170;SDS011;10245;51.344;6.620;2023-05-25T13:07:46;9.75;;;5.30;;
20170;SDS011;10245;51.344;6.620;2023-05-25T13:10:17;13.50;;;6.13;;
20170;SDS011;10245;51.344;6.620;2023-05-25T13:12:59;8.68;;;5.07;;
20170;SDS011;10245;51.344;6.620;2023-05-25T13:15:32;13.25;;;6.00;;
20170;SDS011;10245;51.344;6.620;2023-05-25T13:18:09;16.40;;;5.60;;
20170;SDS011;10245;51.344;6.620;2023-05-25T13:20:55;8.63;;;5.25;;
20170;SDS011;10245;51.344;6.620;2023-05-25T13:23:24;11.10;;;4.88;;
20170;SDS011;10245;51.344;6.620;2023-05-25T13:25:48;14.95;;;5.75;;
20170;SDS011;10245;51.344;6.620;2023-05-25T13:28:13;10.75;;;5.60;;
20170;SDS011;10245;51.344;6.620;2023-05-25T13:30:36;13.73;;;6.47;;
20170;SDS011;10245;51.344;6.620;2023-05-25T13:33:08;10.85;;;6.07;;
20170;SDS011;10245;51.344;6.620;2023-05-25T13:36:24;12.10;;;6.25;;
20170;SDS011;10245;51.344;6.620;2023-05-25T13:39:42;8.43;;;5.30;;
20170;SDS011;10245;51.344;6.620;2023-05-25T13:42:58;10.45;;;5.60;;
20170;SDS011;10245;51.344;6.620;2023-05-25T13:45:25;11.40;;;6.65;;
20170;SDS011;10245;51.344;6.620;2023-05-25T13:48:03;11.27;;;6.10;;
20170;SDS011;10245;51.344;6.620;2023-05-25T13:50:31;11.30;;;6.20;;
20170;SDS011;10245;51.344;6.620;2023-05-25T13:52:55;13.98;;;6.13;;
20170;SDS011;10245;51.344;6.620;2023-05-25T13:55:20;12.68;;;6.25;;
20170;SDS011;10245;51.344;6.620;2023-05-25T13:57:44;8.77;;;5.65;;
20170;SDS011;10245;51.344;6.620;2023-05-25T14:00:08;8.95;;;4.70;;
20170;SDS011;10245;51.344;6.620;2023-05-25T14:03:14;11.32;;;5.35;;
20170;SDS011;10245;51.344;6.620;2023-05-25T14:05:38;8.45;;;5.63;;
20170;SDS011;10245;51.344;6.620;2023-05-25T14:08:01;9.20;;;5.22;;
20170;SDS011;10245;51.344;6.620;2023-05-25T14:10:27;8.88;;;4.68;;
20170;SDS011;10245;51.344;6.620;2023-05-25T14:19:55;30.33;;;12.77;;
20170;SDS011;10245;51.344;6.620;2023-05-25T14:24:49;10.68;;;4.60;;
20170;SDS011;10245;51.344;6.620;2023-05-25T14:27:13;7.45;;;3.53;;
20170;SDS011;10245;51.344;6.620;2023-05-25T14:29:41;7.43;;;3.90;;
20170;SDS011;10245;51.344;6.620;2023-05-25T14:32:05;8.52;;;4.43;;
20170;SDS011;10245;51.344;6.620;2023-05-25T14:34:28;9.15;;;4.30;;
20170;SDS011;10245;51.344;6.620;2023-05-25T14:36:51;6.53;;;3.63;;
20170;SDS011;10245;51.344;6.620;2023-05-25T14:39:15;11.13;;;4.30;;
20170;SDS011;10245;51.344;6.620;2023-05-25T14:41:40;8.18;;;4.57;;
20170;SDS011;10245;51.344;6.620;2023-05-25T14:44:03;8.88;;;4.15;;
20170;SDS011;10245;51.344;6.620;2023-05-25T14:46:27;9.82;;;4.07;;
20170;SDS011;10245;51.344;6.620;2023-05-25T14:48:50;11.13;;;4.78;;
20170;SDS011;10245;51.344;6.620;2023-05-25T14:51:13;8.90;;;4.25;;
20170;SDS011;10245;51.344;6.620;2023-05-25T14:53:37;10.90;;;4.65;;
20170;SDS011;10245;51.344;6.620;2023-05-25T14:56:00;7.70;;;4.68;;
20170;SDS011;10245;51.344;6.620;2023-05-25T14:58:25;18.05;;;3.80;;
20170;SDS011;10245;51.344;6.620;2023-05-25T15:00:49;10.48;;;3.67;;
20170;SDS011;10245;51.344;6.620;2023-05-25T15:03:12;6.70;;;4.30;;
20170;SDS011;10245;51.344;6.620;2023-05-25T15:05:36;9.18;;;4.25;;
20170;SDS011;10245;51.344;6.620;2023-05-25T15:07:59;11.25;;;4.35;;
20170;SDS011;10245;51.344;6.620;2023-05-25T15:10:23;8.98;;;4.05;;
20170;SDS011;10245;51.344;6.620;2023-05-25T15:12:46;13.27;;;4.63;;
20170;SDS011;10245;51.344;6.620;2023-05-25T15:15:11;11.80;;;4.10;;
20170;SDS011;10245;51.344;6.620;2023-05-25T15:17:35;10.00;;;4.45;;
20170;SDS011;10245;51.344;6.620;2023-05-25T15:19:59;6.65;;;3.90;;
20170;SDS011;10245;51.344;6.620;2023-05-25T15:22:23;9.05;;;4.35;;
20170;SDS011;10245;51.344;6.620;2023-05-25T15:24:48;10.98;;;4.20;;
20170;SDS011;10245;51.344;6.620;2023-05-25T15:27:11;9.00;;;4.43;;
20170;SDS011;10245;51.344;6.620;2023-05-25T15:29:35;6.68;;;4.00;;
20170;SDS011;10245;51.344;6.620;2023-05-25T15:32:00;8.68;;;4.10;;
20170;SDS011;10245;51.344;6.620;2023-05-25T15:34:23;8.70;;;3.92;;
20170;SDS011;10245;51.344;6.620;2023-05-25T15:36:47;9.25;;;4.45;;
20170;SDS011;10245;51.344;6.620;2023-05-25T15:39:10;9.65;;;4.75;;
20170;SDS011;10245;51.344;6.620;2023-05-25T15:41:34;9.43;;;4.82;;
20170;SDS011;10245;51.344;6.620;2023-05-25T15:43:58;11.90;;;4.47;;
20170;SDS011;10245;51.344;6.620;2023-05-25T15:46:22;7.63;;;4.00;;
20170;SDS011;10245;51.344;6.620;2023-05-25T15:48:47;11.65;;;4.07;;
20170;SDS011;10245;51.344;6.620;2023-05-25T15:51:11;5.40;;;3.92;;
20170;SDS011;10245;51.344;6.620;2023-05-25T15:53:34;7.90;;;4.18;;
20170;SDS011;10245;51.344;6.620;2023-05-25T15:55:58;9.07;;;4.15;;